Latest Weather Observations for Strathalbyn

IDS60801

Issued at 6:34 pm CDT Thursday 29 January 2015 (issued every 30 minutes, with the page automatically refreshed every 10 minutes)

About weather observations | Map of weather stations | Latest weather observations for SA | Other Formats
Station Details ID: 024580 Name: STRATHALBYN RACECOURSE Lat: -35.28 Lon: 138.89 Height: 58.0 m
Data from the previous 72 hours. | See also: Recent months at Strathalbyn
Date/Time
CDT
Temp
°C
App
Temp
°C
Dew
Point
Rel
Hum
%
Delta-T
°C
Wind Press
QNH
hPa
Press
MSL
hPa
Rain
since 9 am
mm
Dir
 
Spd
km/h
Gust
km/h
Spd
kts
Gust
kts
29/06:30pm 22.1 17.5 12.4 54 5.5 SSW 28 35 15 19 1015.6 - 0.0
29/06:00pm 22.6 17.0 11.4 49 6.3 S 32 39 17 21 1015.6 1015.5 0.0
29/05:30pm 23.3 17.8 10.4 44 7.1 S 30 39 16 21 1015.6 - 0.0
29/05:00pm 24.0 17.8 9.2 39 8.0 S 32 46 17 25 1015.5 - 0.0
29/04:30pm 25.0 19.0 8.5 35 8.9 S 30 39 16 21 1015.7 - 0.0
29/04:00pm 25.1 19.0 6.8 31 9.6 SSE 28 37 15 20 1016.1 - 0.0
29/03:30pm 25.3 20.6 5.0 27 10.3 SSE 19 39 10 21 1016.3 - 0.0
29/03:00pm 26.5 21.1 2.4 21 11.7 SE 20 32 11 17 1016.4 1016.3 0.0
29/02:30pm 26.6 20.6 3.2 22 11.6 SE 24 35 13 19 1016.8 - 0.0
29/02:00pm 25.9 20.2 2.6 22 11.3 SE 22 35 12 19 1017.1 - 0.0
29/01:30pm 25.3 19.7 1.4 21 11.3 E 20 30 11 16 1017.5 - 0.0
29/01:00pm 24.7 18.5 2.2 23 10.8 ESE 24 39 13 21 1017.7 - 0.0
29/12:30pm 24.0 18.7 2.8 25 10.2 ESE 20 30 11 16 1018.2 - 0.0
29/12:00pm 23.5 18.8 3.4 27 9.7 E 17 30 9 16 1018.4 1018.3 0.0
29/11:30am 22.4 17.8 5.4 33 8.5 E 19 30 10 16 1018.5 - 0.0
29/11:00am 21.1 16.1 6.6 39 7.3 E 22 28 12 15 1018.8 - 0.0
29/10:30am 20.1 15.8 6.8 42 6.7 E 19 26 10 14 1019.1 - 0.0
29/10:00am 18.6 14.1 6.8 46 5.9 E 20 26 11 14 1019.2 - 0.0
29/09:30am 18.0 13.1 7.1 49 5.5 E 22 28 12 15 1019.2 - 0.0
29/09:00am 17.1 13.7 7.7 54 4.7 E 15 24 8 13 1019.4 1019.3 0.0
29/08:30am 16.5 14.6 7.7 56 4.4 SSW 7 13 4 7 1019.3 - 0.0
29/08:00am 15.0 12.9 8.3 64 3.4 SSW 9 13 5 7 1019.3 - 0.0
29/07:30am 14.1 12.5 8.9 71 2.6 SSW 7 9 4 5 1019.0 - 0.0
29/07:00am 12.4 11.0 8.9 79 1.8 SSW 6 9 3 5 1018.7 - 0.0
29/06:30am 11.8 10.0 8.1 78 1.8 SSW 7 9 4 5 1018.3 - 0.0
29/06:00am 12.7 11.1 8.8 77 2.0 SSW 7 9 4 5 1018.0 1017.9 0.0
29/05:30am 13.2 11.3 9.1 76 2.1 SSW 9 11 5 6 1017.6 - 0.0
29/05:00am 13.9 12.4 9.1 73 2.4 SSW 7 9 4 5 1017.4 - 0.0
29/04:30am 14.7 12.6 9.9 73 2.5 SSW 11 15 6 8 1017.1 - 0.0
29/04:00am 13.6 11.9 9.8 78 2.0 S 9 11 5 6 1016.9 - 0.0
29/03:30am 14.1 12.0 9.9 76 2.2 S 11 13 6 7 1016.9 - 0.0
29/03:00am 14.8 12.8 10.0 73 2.5 S 11 13 6 7 1016.7 1016.6 0.0
29/02:30am 15.5 14.5 11.1 75 2.4 S 7 9 4 5 1016.5 - 0.0
29/02:00am 16.1 14.9 11.7 75 2.4 S 9 11 5 6 1016.5 - 0.0
29/01:30am 16.2 15.0 12.7 80 1.9 S 11 17 6 9 1016.4 - 0.0
29/01:00am 16.7 14.8 13.0 79 2.1 S 15 19 8 10 1016.3 - 0.0
29/12:30am 17.4 15.4 13.9 80 2.0 SSW 17 22 9 12 1016.5 - 0.0
29/12:00am 17.2 15.0 14.5 84 1.6 SW 19 24 10 13 1016.5 1016.4 0.0
 
Date/Time
CDT
Temp
°C
App
Temp
°C
Dew
Point
Rel
Hum
%
Delta-T
°C
Wind Press
QNH
hPa
Press
MSL
hPa
Rain
since 9 am
mm
Dir
 
Spd
km/h
Gust
km/h
Spd
kts
Gust
kts
28/11:30pm 17.0 15.2 14.5 85 1.4 SW 17 20 9 11 1016.6 - 0.0
28/11:00pm 16.6 15.4 14.1 85 1.4 SW 13 17 7 9 1016.7 - 0.0
28/10:30pm 16.9 15.4 14.2 84 1.5 SSW 15 20 8 11 1016.8 - 0.0
28/10:00pm 16.9 14.9 13.8 82 1.8 SSW 17 20 9 11 1016.8 - 0.0
28/09:30pm 17.0 15.0 13.9 82 1.8 SSW 17 24 9 13 1016.7 - 0.0
28/09:00pm 17.2 14.6 13.7 80 2.0 S 20 24 11 13 1016.6 1016.5 0.0
28/08:30pm 17.7 14.3 13.8 78 2.2 S 24 33 13 18 1016.6 - 0.0
28/08:00pm 18.1 14.2 13.4 74 2.7 S 26 35 14 19 1016.6 - 0.0
28/07:30pm 18.7 14.0 13.3 71 3.1 S 30 37 16 20 1016.4 - 0.0
28/07:00pm 19.5 14.2 13.2 67 3.6 SSW 33 41 18 22 1016.3 - 0.0
28/06:30pm 19.9 13.6 12.4 62 4.2 S 37 46 20 25 1016.0 - 0.0
28/06:00pm 20.6 14.5 11.8 57 4.9 SSW 35 44 19 24 1016.1 1016.0 0.0
28/05:30pm 20.8 14.5 11.2 54 5.3 S 35 44 19 24 1016.2 - 0.0
28/05:00pm 20.3 13.5 10.7 54 5.2 SSW 37 46 20 25 1016.3 - 0.0
28/04:30pm 21.0 14.5 10.5 51 5.7 S 35 44 19 24 1016.3 - 0.0
28/04:00pm 22.1 15.9 9.9 46 6.6 S 33 43 18 23 1016.6 - 0.0
28/03:30pm 21.5 15.2 9.1 45 6.6 S 32 44 17 24 1016.7 - 0.0
28/03:00pm 21.4 14.9 8.3 43 6.9 S 32 39 17 21 1017.0 1016.9 0.0
28/02:30pm 21.3 14.9 8.6 44 6.7 SSW 32 43 17 23 1017.2 - 0.0
28/02:00pm 20.8 14.3 8.1 44 6.6 SSW 32 43 17 23 1017.6 - 0.0
28/01:30pm 20.5 15.6 6.8 41 7.0 SSE 22 39 12 21 1017.9 - 0.0
28/01:00pm 19.7 15.0 7.8 46 6.1 S 22 35 12 19 1018.0 - 0.0
28/12:44pm 20.0 13.7 7.4 44 6.5 S 30 48 16 26 1018.0 - 0.0
28/12:30pm 19.6 14.7 7.0 44 6.4 SSE 22 37 12 20 1018.2 - 0.0
28/12:00pm 20.3 14.7 7.3 43 6.6 SSE 26 39 14 21 1018.4 1018.3 0.0
28/11:30am 19.4 14.1 6.8 44 6.4 ESE 24 33 13 18 1018.6 - 0.0
28/11:00am 19.2 13.9 7.0 45 6.2 SE 24 39 13 21 1018.9 - 0.0
28/10:30am 17.4 10.9 6.3 48 5.5 SE 30 41 16 22 1018.9 - 0.0
28/10:00am 17.2 11.1 6.4 49 5.3 SE 28 39 15 21 1019.0 - 0.0
28/09:30am 16.7 10.6 6.5 51 5.0 SE 28 39 15 21 1019.2 - 0.0
28/09:00am 15.8 9.7 6.5 54 4.5 SE 28 46 15 25 1019.2 1019.1 0.0
28/08:58am 15.9 9.8 6.6 54 4.6 SE 28 46 15 25 1019.2 - 0.0
28/08:30am 15.2 8.7 6.7 57 4.2 SE 30 43 16 23 1019.0 - 0.0
28/08:08am 14.9 8.8 6.7 58 4.0 SE 28 46 15 25 1018.9 - 0.0
28/08:00am 14.8 9.5 6.9 59 3.9 SE 24 37 13 20 1018.8 - 0.0
28/07:30am 14.2 8.9 6.8 61 3.6 SSE 24 35 13 19 1018.6 - 0.0
28/07:00am 13.2 8.9 7.0 66 3.0 SSE 19 26 10 14 1018.2 - 0.0
28/06:30am 12.4 8.9 7.1 70 2.6 SSE 15 20 8 11 1017.9 - 0.0
28/06:00am 12.7 8.8 7.0 68 2.7 SE 17 24 9 13 1017.8 1017.7 0.0
28/05:30am 13.0 8.6 6.4 64 3.2 SE 19 26 10 14 1017.4 - 0.0
28/05:00am 13.0 9.3 6.1 63 3.3 SE 15 19 8 10 1017.2 - 0.0
28/04:30am 13.3 8.8 5.9 61 3.5 SE 19 24 10 13 1017.1 - 0.0
28/04:00am 13.7 9.1 6.6 62 3.4 SE 20 30 11 16 1017.4 - 0.0
28/03:30am 14.0 8.9 6.1 59 3.8 ESE 22 32 12 17 1017.6 - 0.0
28/03:00am 14.6 9.5 6.2 57 4.0 SE 22 32 12 17 1017.5 1017.4 0.0
28/02:30am 14.5 10.5 6.8 60 3.8 SE 17 22 9 12 1017.5 - 0.0
28/02:00am 14.4 10.4 6.7 60 3.7 SE 17 24 9 13 1017.7 - 0.0
28/01:30am 14.7 10.9 7.7 63 3.5 SE 17 24 9 13 1018.1 - 0.0
28/01:00am 15.1 11.1 9.0 67 3.1 SSE 20 35 11 19 1018.1 - 0.0
28/12:30am 15.1 11.4 9.5 69 2.9 S 19 24 10 13 1018.1 - 0.0
28/12:00am 15.2 11.5 10.2 72 2.6 S 20 28 11 15 1018.0 1017.9 0.0
 
Date/Time
CDT
Temp
°C
App
Temp
°C
Dew
Point
Rel
Hum
%
Delta-T
°C
Wind Press
QNH
hPa
Press
MSL
hPa
Rain
since 9 am
mm
Dir
 
Spd
km/h
Gust
km/h
Spd
kts
Gust
kts
27/11:30pm 14.7 11.2 10.1 74 2.4 S 19 24 10 13 1018.1 - 0.0
27/11:00pm 14.5 10.9 9.7 73 2.5 S 19 26 10 14 1018.3 - 0.0
27/10:30pm 14.9 11.3 9.7 71 2.7 S 19 26 10 14 1018.4 - 0.0
27/10:00pm 14.9 10.6 9.3 69 2.9 S 22 28 12 15 1018.2 - 0.0
27/09:30pm 15.1 10.2 8.6 65 3.3 S 24 28 13 15 1018.1 - 0.0
27/09:00pm 15.4 9.8 8.6 64 3.5 S 28 35 15 19 1017.8 1017.7 0.0
27/08:30pm 15.7 10.5 8.7 63 3.6 S 26 33 14 18 1017.7 - 0.0
27/08:00pm 16.4 10.0 8.6 60 4.0 S 32 41 17 22 1017.5 - 0.0
27/07:30pm 17.2 10.5 8.1 55 4.6 S 33 46 18 25 1017.3 - 0.0
27/07:00pm 18.1 10.9 7.5 50 5.4 S 35 46 19 25 1017.1 - 0.0
27/06:30pm 18.0 10.9 8.0 52 5.1 S 35 46 19 25 1016.9 - 0.0
27/06:00pm 18.2 10.9 7.3 49 5.5 S 35 70 19 38 1016.8 1016.7 0.0
27/05:56pm 18.6 11.0 7.7 49 5.6 S 37 70 20 38 1016.6 - 0.0
27/05:30pm 18.7 11.2 6.2 44 6.2 S 35 48 19 26 1016.9 - 0.0
27/05:00pm 20.0 13.1 6.4 41 6.8 S 32 46 17 25 1016.7 - 0.0
27/04:42pm 19.5 13.1 6.9 44 6.4 S 30 48 16 26 1016.7 - 0.0
27/04:30pm 19.2 11.9 7.0 45 6.2 S 35 48 19 26 1016.7 - 0.0
27/04:00pm 19.6 13.0 7.7 46 6.1 S 32 43 17 23 1016.8 - 0.0
27/03:30pm 19.2 12.5 7.3 46 6.1 S 32 41 17 22 1017.0 - 0.0
27/03:00pm 18.3 12.0 7.4 49 5.5 S 30 43 16 23 1017.3 1017.2 0.0
27/02:30pm 18.5 12.0 6.7 46 5.9 S 30 44 16 24 1017.4 - 0.0
27/02:00pm 19.2 12.4 7.0 45 6.2 S 32 43 17 23 1017.4 - 0.0
27/01:30pm 18.1 12.0 6.6 47 5.7 SSE 28 37 15 20 1017.7 - 0.0
27/01:00pm 19.0 13.0 7.1 46 6.0 SSE 28 37 15 20 1017.9 - 0.0
27/12:30pm 18.6 12.7 5.8 43 6.3 SSE 26 37 14 20 1018.1 - 0.0
27/12:00pm 18.9 14.0 6.7 45 6.1 SE 22 33 12 18 1018.4 1018.3 0.0
27/11:30am 18.4 13.4 6.6 46 5.9 SE 22 33 12 18 1018.4 - 0.0
27/11:00am 17.2 12.5 6.1 48 5.4 ESE 20 28 11 15 1018.8 - 0.0
27/10:30am 16.6 11.9 5.9 49 5.2 SE 20 30 11 16 1018.9 - 0.0
27/10:00am 16.6 11.9 6.1 50 5.1 SE 20 30 11 16 1019.0 - 0.0
27/09:30am 16.4 11.9 6.0 50 5.1 SE 19 26 10 14 1019.0 - 0.0
27/09:00am 15.5 10.8 6.0 53 4.6 ESE 20 28 11 15 1019.1 1019.0 0.0
27/08:30am 15.2 11.5 6.5 56 4.2 ESE 15 24 8 13 1019.1 - 0.0
27/08:00am 14.8 12.1 7.4 61 3.7 E 11 17 6 9 1019.0 - 0.0
27/07:30am 13.5 11.5 7.3 66 3.0 E 7 9 4 5 1018.7 - 0.0
27/07:00am 12.9 11.0 6.9 67 2.9 E 6 7 3 4 1018.6 - 0.0
27/06:30am 13.0 10.9 6.6 65 3.1 E 7 13 4 7 1018.3 - 0.0
27/06:00am 13.5 10.7 6.8 64 3.2 E 11 15 6 8 1018.0 1017.9 0.0
27/05:30am 13.6 10.4 6.7 63 3.3 E 13 17 7 9 1017.8 - 0.0
27/05:00am 13.4 11.6 7.2 66 3.0 ESE 6 9 3 5 1017.6 - 0.0
27/04:30am 13.3 11.6 7.5 68 2.8 ESE 6 7 3 4 1017.6 - 0.0
27/04:00am 13.3 11.7 8.0 70 2.6 ESE 6 7 3 4 1017.5 - 0.0
27/03:30am 13.6 11.0 7.8 68 2.9 ESE 11 17 6 9 1017.4 - 0.0
27/03:00am 14.4 11.7 9.0 70 2.7 ESE 13 19 7 10 1017.6 1017.5 0.0
27/02:30am 12.9 11.3 8.2 73 2.3 S 6 9 3 5 1017.6 - 0.0
27/02:00am 13.0 10.4 7.7 70 2.6 S 11 15 6 8 1017.7 - 0.0
27/01:30am 13.5 10.6 8.1 70 2.7 SSW 13 15 7 8 1018.0 - 0.0
27/01:00am 13.5 10.5 7.9 69 2.8 SSW 13 15 7 8 1018.2 - 0.0
27/12:30am 13.1 10.5 7.8 70 2.6 SW 11 15 6 8 1018.4 - 0.0
27/12:00am 12.4 10.0 6.9 69 2.6 SW 9 13 5 7 1018.5 1018.4 0.0
 
Date/Time
CDT
Temp
°C
App
Temp
°C
Dew
Point
Rel
Hum
%
Delta-T
°C
Wind Press
QNH
hPa
Press
MSL
hPa
Rain
since 9 am
mm
Dir
 
Spd
km/h
Gust
km/h
Spd
kts
Gust
kts
26/11:30pm 12.8 9.6 7.0 68 2.8 SSW 13 15 7 8 - - 0.0
26/11:00pm 12.7 10.6 6.7 67 2.9 S 7 9 4 5 1018.7 - 0.0
26/10:30pm 12.6 9.6 6.2 65 3.0 S 11 13 6 7 1018.7 - 0.0
26/10:00pm 13.0 10.1 6.4 64 3.2 S 11 15 6 8 1018.7 - 0.0
26/09:30pm 13.9 10.6 6.5 61 3.6 S 13 17 7 9 1018.4 - 0.0
26/09:00pm 14.7 10.6 6.3 57 4.0 S 17 20 9 11 1018.2 1018.1 0.0
26/08:30pm 15.7 10.3 6.2 53 4.6 S 24 33 13 18 1018.1 - 0.0
26/08:00pm 16.2 10.7 7.4 56 4.4 S 26 33 14 18 1017.8 - 0.0
26/07:30pm 16.7 10.6 6.8 52 4.9 S 28 35 15 19 1017.6 - 0.0
26/07:00pm 17.0 10.8 6.2 49 5.3 S 28 33 15 18 1017.4 - 0.0

Other Formats:

Comma delimited format used in spreadsheet applications
http://www.bom.gov.au/fwo/IDS60801/IDS60801.94814.axf

JavaScript Object Notation format (JSON) in row-major order
http://www.bom.gov.au/fwo/IDS60801/IDS60801.94814.json